Time;durP1;ratioP1;P1;durP2;ratioP2;P2;SDS_P1;SDS_P2;PMS_P1;PMS_P2;Temp;Humidity;BMP_temperature;BMP_pressure;BME280_temperature;BME280_humidity;BME280_pressure;Samples;Min_cycle;Max_cycle;Signal;HPM_P1;HPM_P2
2022/05/15 00:02:40;;;;;;;15.07;7.75;;;;;;;15.68;97.77;99358.16;4917217;29;20508;-89
2022/05/15 00:05:07;;;;;;;15.52;7.38;;;;;;;15.68;97.87;99358.97;4916919;29;20028;-90
2022/05/15 00:07:33;;;;;;;14.73;8.15;;;;;;;15.70;98.11;99362.22;4916859;29;20032;-89
2022/05/15 00:09:59;;;;;;;15.95;7.63;;;;;;;15.69;98.56;99359.75;4918158;29;20508;-89
2022/05/15 00:12:25;;;;;;;18.50;7.82;;;;;;;15.69;98.55;99359.75;4918851;29;20040;-89
2022/05/15 00:14:51;;;;;;;21.60;8.85;;;;;;;15.71;98.98;99368.28;4916860;29;20553;-90
2022/05/15 00:17:16;;;;;;;15.07;9.25;;;;;;;15.67;99.36;99365.28;4916818;29;20394;-89
2022/05/15 00:19:45;;;;;;;15.43;8.45;;;;;;;15.62;99.76;99362.47;4901715;29;20040;-90
2022/05/15 00:22:13;;;;;;;15.65;8.77;;;;;;;15.54;100.00;99358.31;4917190;29;20051;-90
2022/05/15 00:24:38;;;;;;;18.48;8.50;;;;;;;15.49;100.00;99355.50;4927299;29;20040;-89
2022/05/15 00:27:04;;;;;;;15.40;8.32;;;;;;;15.51;100.00;99364.00;4903290;29;20028;-90
2022/05/15 00:29:30;;;;;;;21.42;8.90;;;;;;;15.55;100.00;99359.94;4918438;29;20505;-89
2022/05/15 00:31:57;;;;;;;22.25;8.85;;;;;;;15.59;100.00;99362.13;4916793;29;20032;-89
2022/05/15 00:34:23;;;;;;;15.77;8.10;;;;;;;15.57;100.00;99376.38;4917247;29;20036;-89
2022/05/15 00:36:49;;;;;;;16.98;8.60;;;;;;;15.59;100.00;99367.41;4917339;29;20035;-89
2022/05/15 00:39:15;;;;;;;20.65;8.20;;;;;;;15.66;100.00;99360.22;4918102;29;20144;-89
2022/05/15 00:41:40;;;;;;;19.45;8.68;;;;;;;15.75;100.00;99361.56;4917741;29;20483;-89
2022/05/15 00:44:08;;;;;;;18.75;8.27;;;;;;;15.81;100.00;99352.72;4917758;29;20726;-89
2022/05/15 00:46:38;;;;;;;13.27;8.40;;;;;;;15.85;100.00;99359.19;4914322;29;20107;-89
2022/05/15 00:49:07;;;;;;;17.85;9.25;;;;;;;15.94;100.00;99353.63;4915681;29;20087;-90
2022/05/15 00:51:41;;;;;;;13.85;8.40;;;;;;;15.98;100.00;99345.00;4899851;29;20032;-88
2022/05/15 00:54:32;;;;;;;20.17;8.20;;;;;;;16.06;100.00;99346.53;4916291;29;20032;-89
2022/05/15 00:57:03;;;;;;;19.73;8.55;;;;;;;16.05;100.00;99352.06;4915606;29;20036;-89
2022/05/15 00:59:32;;;;;;;17.67;9.38;;;;;;;16.07;100.00;99334.13;4917455;29;20187;-90
2022/05/15 01:01:58;;;;;;;14.52;8.75;;;;;;;16.08;100.00;99341.84;4914658;29;20044;-89
2022/05/15 01:04:26;;;;;;;17.65;8.40;;;;;;;16.11;100.00;99352.00;4915999;29;20040;-89
2022/05/15 01:06:55;;;;;;;16.58;9.40;;;;;;;16.15;100.00;99340.97;4915798;29;20028;-90
2022/05/15 01:09:26;;;;;;;23.08;9.35;;;;;;;16.14;100.00;99340.13;4915954;29;20044;-90
2022/05/15 01:11:57;;;;;;;16.95;9.38;;;;;;;16.12;100.00;99336.91;4915079;29;20063;-88
2022/05/15 01:14:25;;;;;;;16.98;9.10;;;;;;;16.09;100.00;99358.53;4917246;29;20060;-90
2022/05/15 01:16:54;;;;;;;22.10;9.93;;;;;;;16.13;100.00;99360.53;4916112;29;20483;-89
2022/05/15 01:19:32;;;;;;;18.42;9.43;;;;;;;16.16;100.00;99358.47;4916512;29;20036;-90
2022/05/15 01:22:00;;;;;;;26.45;9.65;;;;;;;16.11;100.00;99362.59;4915724;29;20036;-89
2022/05/15 01:24:26;;;;;;;18.75;9.75;;;;;;;16.10;100.00;99366.25;4916717;29;20056;-89
2022/05/15 01:26:52;;;;;;;20.00;9.20;;;;;;;16.15;100.00;99370.88;4915622;29;20039;-89
2022/05/15 01:29:26;;;;;;;19.67;10.98;;;;;;;16.19;100.00;99368.59;4916949;29;20048;-89
2022/05/15 01:31:52;;;;;;;19.25;10.25;;;;;;;16.15;100.00;99362.13;4916547;29;20043;-88
2022/05/15 01:34:17;;;;;;;22.75;10.45;;;;;;;16.16;100.00;99361.09;4914375;29;20487;-89
2022/05/15 01:36:43;;;;;;;21.23;11.65;;;;;;;16.12;100.00;99352.78;4916577;29;20364;-88
2022/05/15 01:39:09;;;;;;;22.98;11.35;;;;;;;16.04;100.00;99345.97;4916512;29;20046;-90
2022/05/15 01:41:34;;;;;;;18.70;10.95;;;;;;;16.05;100.00;99354.72;4938724;29;20031;-87
2022/05/15 01:44:00;;;;;;;21.58;10.85;;;;;;;16.08;100.00;99352.41;4915211;29;20024;-88
2022/05/15 01:46:28;;;;;;;21.85;10.90;;;;;;;16.09;100.00;99345.31;4916373;29;20028;-88
2022/05/15 01:48:54;;;;;;;18.88;10.57;;;;;;;16.06;100.00;99345.75;4916457;29;20086;-90
2022/05/15 01:51:21;;;;;;;19.70;11.48;;;;;;;16.06;100.00;99343.91;4899425;29;20490;-88
2022/05/15 01:53:47;;;;;;;21.20;10.93;;;;;;;16.07;100.00;99345.50;4898176;29;20036;-89
2022/05/15 01:56:14;;;;;;;23.75;11.30;;;;;;;16.06;100.00;99343.09;4914797;29;20025;-89
2022/05/15 01:58:40;;;;;;;20.63;10.68;;;;;;;16.02;100.00;99341.94;4915372;29;20039;-89
2022/05/15 02:01:07;;;;;;;23.95;10.68;;;;;;;16.02;100.00;99344.59;4914902;29;20080;-90
2022/05/15 02:03:34;;;;;;;17.75;10.10;;;;;;;16.04;100.00;99361.84;4899257;29;20119;-90
2022/05/15 02:06:00;;;;;;;17.88;9.85;;;;;;;16.09;100.00;99355.91;4915068;29;20028;-90
2022/05/15 02:08:30;;;;;;;17.60;10.15;;;;;;;16.06;100.00;99349.19;4915150;29;20106;-89
2022/05/15 02:10:56;;;;;;;17.63;9.60;;;;;;;16.06;100.00;99365.06;4915817;29;20047;-90
2022/05/15 02:13:22;;;;;;;21.38;10.10;;;;;;;16.02;100.00;99357.81;4914480;29;20383;-91
2022/05/15 02:15:47;;;;;;;17.60;9.98;;;;;;;15.99;100.00;99365.16;4915611;29;20083;-89
2022/05/15 02:18:14;;;;;;;17.92;9.73;;;;;;;16.05;100.00;99354.72;4914138;29;20028;-90
2022/05/15 02:20:39;;;;;;;19.17;9.18;;;;;;;16.08;100.00;99365.66;4915551;29;20039;-88
2022/05/15 02:23:05;;;;;;;24.08;10.48;;;;;;;16.07;100.00;99366.69;4938336;29;20035;-90
2022/05/15 02:25:31;;;;;;;19.20;10.02;;;;;;;16.04;100.00;99356.56;4913587;29;20039;-90
2022/05/15 02:27:58;;;;;;;23.10;12.05;;;;;;;16.06;100.00;99359.78;4915039;29;20032;-89
2022/05/15 02:30:24;;;;;;;25.33;10.57;;;;;;;15.97;100.00;99353.97;4898182;29;20040;-90
2022/05/15 02:32:50;;;;;;;17.25;11.25;;;;;;;15.95;100.00;99363.19;4914488;29;20024;-88
2022/05/15 02:35:17;;;;;;;19.38;10.35;;;;;;;15.93;100.00;99354.66;4915655;29;20044;-88
2022/05/15 02:37:44;;;;;;;20.80;10.68;;;;;;;15.87;100.00;99355.50;4914986;29;20042;-88
2022/05/15 02:40:12;;;;;;;21.27;11.80;;;;;;;15.90;100.00;99355.09;4914249;29;20043;-88
2022/05/15 02:42:38;;;;;;;15.90;11.13;;;;;;;15.83;100.00;99355.16;4922648;29;20036;-88
2022/05/15 02:45:05;;;;;;;18.08;10.18;;;;;;;15.89;100.00;99356.13;4914041;29;20071;-90
2022/05/15 02:47:32;;;;;;;19.67;10.57;;;;;;;15.85;100.00;99359.19;4913872;29;20032;-88
2022/05/15 02:52:41;;;;;;;24.88;10.43;;;;;;;15.70;100.00;99356.09;4914200;29;20047;-90
2022/05/15 02:55:07;;;;;;;19.98;10.40;;;;;;;15.73;100.00;99350.38;4913657;29;20036;-88
2022/05/15 02:57:33;;;;;;;17.05;9.52;;;;;;;15.75;100.00;99360.72;4921507;29;20028;-89
2022/05/15 02:59:59;;;;;;;21.52;10.38;;;;;;;15.74;100.00;99359.13;4915221;29;20506;-89
2022/05/15 03:02:25;;;;;;;19.70;11.45;;;;;;;15.76;100.00;99362.34;4917700;29;20400;-90
2022/05/15 03:04:51;;;;;;;17.20;10.27;;;;;;;15.70;100.00;99356.09;4914955;29;20032;-89
2022/05/15 03:07:18;;;;;;;21.30;11.70;;;;;;;15.57;100.00;99362.34;4913890;29;20403;-88
2022/05/15 03:09:43;;;;;;;18.77;10.77;;;;;;;15.66;100.00;99360.22;4915229;29;20034;-89
2022/05/15 03:12:09;;;;;;;23.08;11.10;;;;;;;15.75;100.00;99390.66;4913844;29;20028;-88
2022/05/15 03:14:34;;;;;;;23.20;11.65;;;;;;;15.70;100.00;99385.19;4914789;29;20471;-88
2022/05/15 03:17:00;;;;;;;24.02;11.73;;;;;;;15.73;100.00;99379.50;4914655;29;20106;-88
2022/05/15 03:19:26;;;;;;;21.90;11.32;;;;;;;15.70;100.00;99387.84;4898044;29;21954;-90
2022/05/15 03:21:52;;;;;;;20.40;11.02;;;;;;;15.78;100.00;99390.22;4913440;29;20094;-88
2022/05/15 03:24:18;;;;;;;19.85;10.60;;;;;;;15.82;100.00;99386.09;4937006;28;20036;-90
2022/05/15 03:26:48;;;;;;;19.58;10.45;;;;;;;15.85;100.00;99380.34;4918673;29;20048;-90
2022/05/15 03:29:17;;;;;;;20.83;11.40;;;;;;;15.80;100.00;99387.34;4926847;29;20040;-89
2022/05/15 03:31:42;;;;;;;19.90;11.35;;;;;;;15.82;100.00;99393.22;4917414;29;20116;-88
2022/05/15 03:34:11;;;;;;;25.90;12.98;;;;;;;15.74;100.00;99399.63;4918910;29;20044;-89
2022/05/15 03:36:39;;;;;;;20.83;12.30;;;;;;;15.62;100.00;99401.38;4917585;29;20036;-89
2022/05/15 03:39:06;;;;;;;31.15;13.57;;;;;;;15.67;100.00;99405.00;4918213;29;20052;-89
2022/05/15 03:41:33;;;;;;;27.00;13.68;;;;;;;15.62;100.00;99402.16;4917337;29;20047;-89
2022/05/15 03:44:00;;;;;;;24.80;12.38;;;;;;;15.48;100.00;99400.69;4908373;29;20178;-89
2022/05/15 03:46:26;;;;;;;21.27;11.65;;;;;;;15.52;100.00;99392.09;4918014;29;20039;-88
2022/05/15 03:48:52;;;;;;;26.90;12.93;;;;;;;15.51;100.00;99394.97;4907861;29;20036;-88
2022/05/15 03:51:18;;;;;;;30.23;13.30;;;;;;;15.31;100.00;99381.91;4918224;29;20451;-89
2022/05/15 03:53:44;;;;;;;25.00;11.98;;;;;;;15.36;100.00;99390.03;4943235;29;20040;-90
2022/05/15 03:56:11;;;;;;;27.33;11.55;;;;;;;15.08;100.00;99360.34;4917778;29;20512;-89
2022/05/15 03:58:38;;;;;;;22.27;9.80;;;;;;;14.79;100.00;99335.38;4918180;29;20044;-88
2022/05/15 04:01:05;;;;;;;16.90;10.43;;;;;;;14.87;100.00;99316.59;4917858;29;20104;-89
2022/05/15 04:03:30;;;;;;;23.23;11.50;;;;;;;14.48;100.00;99289.41;4912011;29;20030;-87
2022/05/15 04:05:56;;;;;;;25.13;11.60;;;;;;;14.28;100.00;99298.28;4916107;29;20364;-89
2022/05/15 04:08:23;;;;;;;24.33;11.38;;;;;;;14.00;100.00;99265.94;4917744;29;20087;-89
2022/05/15 04:10:48;;;;;;;21.85;9.60;;;;;;;13.94;100.00;99277.34;4917294;29;20379;-88
2022/05/15 04:13:14;;;;;;;19.20;8.15;;;;;;;13.96;100.00;99282.44;4917637;29;20084;-89
2022/05/15 04:15:46;;;;;;;16.73;7.18;;;;;;;14.07;100.00;99278.31;4917600;29;20035;-88
2022/05/15 04:18:11;;;;;;;15.98;6.63;;;;;;;14.29;100.00;99278.78;4916645;29;20090;-89
2022/05/15 04:20:37;;;;;;;11.32;5.15;;;;;;;14.35;100.00;99282.41;4916996;29;20490;-88
2022/05/15 04:23:10;;;;;;;9.00;4.60;;;;;;;14.49;100.00;99299.78;4902192;29;20474;-90
2022/05/15 04:25:37;;;;;;;17.52;7.10;;;;;;;14.28;100.00;99293.00;4916564;29;20372;-90
2022/05/15 04:28:03;;;;;;;16.88;8.60;;;;;;;14.42;100.00;99294.53;4888724;29;20119;-89
2022/05/15 04:30:29;;;;;;;13.93;7.55;;;;;;;14.45;100.00;99303.06;4916584;29;20459;-88
2022/05/15 04:32:55;;;;;;;16.30;8.82;;;;;;;14.56;100.00;99305.03;4916164;29;20024;-88
2022/05/15 04:35:23;;;;;;;14.40;8.32;;;;;;;14.58;100.00;99297.69;4917611;29;20032;-88
2022/05/15 04:37:50;;;;;;;15.95;7.88;;;;;;;14.59;100.00;99304.59;4916932;29;20075;-90
2022/05/15 04:40:17;;;;;;;15.00;7.75;;;;;;;14.62;100.00;99311.25;4917125;29;20043;-89
2022/05/15 04:42:43;;;;;;;17.98;9.48;;;;;;;14.64;100.00;99302.09;4915918;29;20119;-89
2022/05/15 04:45:09;;;;;;;18.05;8.60;;;;;;;14.68;100.00;99298.00;4917469;29;20110;-90
2022/05/15 04:47:36;;;;;;;17.42;9.43;;;;;;;14.55;100.00;99309.47;4916429;29;20403;-90
2022/05/15 04:50:02;;;;;;;21.63;8.80;;;;;;;14.61;100.00;99302.53;4916239;29;20036;-89
2022/05/15 04:52:28;;;;;;;19.58;9.02;;;;;;;14.61;100.00;99291.97;4916221;29;20056;-88
2022/05/15 04:54:53;;;;;;;16.33;9.65;;;;;;;14.58;100.00;99287.13;4916089;29;20482;-88
2022/05/15 04:57:19;;;;;;;19.75;9.95;;;;;;;14.61;100.00;99294.63;4916620;29;20510;-88
2022/05/15 04:59:45;;;;;;;18.95;9.30;;;;;;;14.53;100.00;99298.31;4917470;29;20043;-88
2022/05/15 05:02:10;;;;;;;17.38;8.85;;;;;;;14.58;100.00;99297.69;4913355;29;20472;-88
2022/05/15 05:04:36;;;;;;;21.15;8.77;;;;;;;14.65;100.00;99303.72;4914592;29;20036;-87
2022/05/15 05:07:02;;;;;;;17.02;9.45;;;;;;;14.67;100.00;99306.94;4939349;29;20402;-88
2022/05/15 05:09:27;;;;;;;16.98;9.02;;;;;;;14.69;100.00;99314.69;4899709;29;20044;-88
2022/05/15 05:11:53;;;;;;;11.70;8.07;;;;;;;14.64;100.00;99307.38;4934729;29;20032;-88
2022/05/15 05:14:19;;;;;;;17.73;9.65;;;;;;;14.82;100.00;99337.56;4917064;29;20035;-88
2022/05/15 05:16:45;;;;;;;21.90;11.57;;;;;;;14.76;100.00;99335.81;4916325;29;20047;-87
2022/05/15 05:19:11;;;;;;;24.50;11.57;;;;;;;14.76;100.00;99341.88;4904744;29;20035;-89
2022/05/15 05:21:36;;;;;;;21.52;11.40;;;;;;;14.66;100.00;99337.03;4921549;29;20056;-90
2022/05/15 05:24:02;;;;;;;19.50;10.88;;;;;;;14.78;100.00;99345.13;4915614;29;20135;-89
2022/05/15 05:26:28;;;;;;;23.75;11.30;;;;;;;14.79;100.00;99335.38;4916311;29;20028;-89
2022/05/15 05:28:54;;;;;;;19.90;11.82;;;;;;;14.77;100.00;99334.78;4916637;29;20389;-88
2022/05/15 05:31:20;;;;;;;22.17;11.10;;;;;;;14.89;100.00;99340.16;4916392;29;20107;-91
2022/05/15 05:33:46;;;;;;;22.55;11.98;;;;;;;14.96;100.00;99339.09;4916728;29;20467;-89
2022/05/15 05:36:13;;;;;;;21.00;12.60;;;;;;;15.02;100.00;99331.31;4915094;29;20072;-89
2022/05/15 05:38:39;;;;;;;22.85;11.93;;;;;;;15.11;100.00;99324.72;4916688;29;20028;-89
2022/05/15 05:41:04;;;;;;;23.75;12.65;;;;;;;15.19;100.00;99329.75;4905656;29;20046;-88
2022/05/15 05:43:32;;;;;;;23.85;12.70;;;;;;;15.34;100.00;99325.97;4935983;28;20145;-88
2022/05/15 05:45:59;;;;;;;17.60;11.40;;;;;;;15.38;100.00;99321.84;4916315;29;20028;-87
2022/05/15 05:48:24;;;;;;;25.45;12.95;;;;;;;15.58;100.00;99318.97;4891529;29;20032;-88
2022/05/15 05:50:50;;;;;;;29.55;18.77;;;;;;;15.73;100.00;99305.41;4916063;29;20103;-89
2022/05/15 05:53:16;;;;;;;33.67;22.40;;;;;;;15.83;100.00;99307.50;4914807;29;20407;-90
2022/05/15 05:55:41;;;;;;;39.40;22.73;;;;;;;15.86;100.00;99301.78;4913959;29;20031;-88
2022/05/15 05:58:09;;;;;;;35.35;22.88;;;;;;;15.71;100.00;99289.72;4914606;29;20036;-89
2022/05/15 06:00:40;;;;;;;26.60;16.75;;;;;;;15.84;100.00;99288.75;4914621;29;20042;-89
2022/05/15 06:05:51;;;;;;;29.92;13.85;;;;;;;15.99;100.00;99295.53;4915547;29;20032;-88
2022/05/15 06:08:17;;;;;;;34.22;14.18;;;;;;;15.98;100.00;99296.56;4914294;29;20119;-88
2022/05/15 06:10:44;;;;;;;22.23;12.68;;;;;;;16.05;100.00;99302.56;4913937;29;20164;-89
2022/05/15 06:13:10;;;;;;;23.65;12.40;;;;;;;16.10;100.00;99308.00;4898607;29;20047;-89
2022/05/15 06:15:36;;;;;;;23.55;11.88;;;;;;;16.07;100.00;99297.06;4943841;29;20024;-89
2022/05/15 06:18:04;;;;;;;25.63;11.73;;;;;;;16.05;100.00;99315.00;4914479;29;20390;-89
2022/05/15 06:20:30;;;;;;;27.90;13.68;;;;;;;16.08;100.00;99315.34;4898714;29;20035;-88
2022/05/15 06:22:56;;;;;;;26.85;12.27;;;;;;;16.00;100.00;99307.72;4915281;29;20032;-89
2022/05/15 06:25:22;;;;;;;23.17;12.95;;;;;;;16.05;100.00;99309.72;4938532;29;20028;-89
2022/05/15 06:27:48;;;;;;;21.17;12.85;;;;;;;16.20;100.00;99315.41;4898346;29;20489;-89
2022/05/15 06:30:15;;;;;;;23.70;12.68;;;;;;;16.24;100.00;99313.13;4937054;28;20081;-88
2022/05/15 06:32:41;;;;;;;25.42;14.13;;;;;;;16.35;100.00;99314.19;4899237;29;20127;-88
2022/05/15 06:35:10;;;;;;;26.65;13.55;;;;;;;16.29;100.00;99313.25;4915994;29;20036;-90
2022/05/15 06:37:36;;;;;;;28.05;14.27;;;;;;;16.44;100.00;99322.63;4897615;29;20040;-88
2022/05/15 06:40:02;;;;;;;22.45;13.48;;;;;;;16.49;100.00;99320.09;4914433;29;20043;-89
2022/05/15 06:42:29;;;;;;;22.02;13.02;;;;;;;16.44;100.00;99318.16;4920288;29;20411;-89
2022/05/15 06:44:55;;;;;;;22.77;12.52;;;;;;;16.60;100.00;99315.84;4915420;29;20071;-88
2022/05/15 06:47:23;;;;;;;23.13;13.05;;;;;;;16.70;100.00;99309.00;4912785;29;20451;-89
2022/05/15 06:49:49;;;;;;;24.30;12.85;;;;;;;16.63;100.00;99310.13;4913351;29;20042;-89
2022/05/15 06:52:16;;;;;;;26.48;13.07;;;;;;;16.55;100.00;99313.91;4909590;29;20071;-89
2022/05/15 06:54:42;;;;;;;23.35;13.32;;;;;;;16.69;100.00;99315.28;4890775;29;20084;-89
2022/05/15 06:59:52;;;;;;;22.20;12.57;;;;;;;16.97;100.00;99311.19;4911715;29;20032;-88
2022/05/15 07:02:18;;;;;;;21.90;12.20;;;;;;;17.07;100.00;99318.59;4914371;29;20051;-88
2022/05/15 07:04:44;;;;;;;23.65;12.05;;;;;;;17.11;100.00;99308.34;4914780;29;20510;-86
2022/05/15 07:07:10;;;;;;;25.52;12.30;;;;;;;17.30;100.00;99302.94;4914447;29;20052;-86
2022/05/15 07:09:36;;;;;;;19.67;12.05;;;;;;;17.48;100.00;99305.41;4914771;29;20024;-85
2022/05/15 07:12:03;;;;;;;27.17;12.77;;;;;;;17.38;100.00;99302.56;4914301;29;20542;-85
2022/05/15 07:14:29;;;;;;;23.20;12.25;;;;;;;17.51;100.00;99312.94;4914642;29;20064;-86
2022/05/15 07:16:55;;;;;;;23.90;11.45;;;;;;;17.54;100.00;99304.50;4913772;29;20029;-86
2022/05/15 07:19:23;;;;;;;18.73;11.23;;;;;;;17.59;100.00;99300.31;4911816;29;20100;-87
2022/05/15 07:21:49;;;;;;;17.73;11.27;;;;;;;17.72;100.00;99304.56;4912229;29;20040;-87
2022/05/15 07:24:16;;;;;;;20.13;10.73;;;;;;;17.94;100.00;99307.41;4913531;29;20070;-87
2022/05/15 07:26:44;;;;;;;24.13;10.40;;;;;;;18.01;100.00;99308.06;4896146;29;20060;-86
2022/05/15 07:29:11;;;;;;;23.23;9.25;;;;;;;18.15;100.00;99305.16;4914158;29;20114;-85
2022/05/15 07:31:37;;;;;;;20.85;9.40;;;;;;;18.24;100.00;99317.81;4914808;29;20458;-89
2022/05/15 07:34:02;;;;;;;16.80;9.68;;;;;;;18.46;100.00;99313.63;4913585;29;20111;-87
2022/05/15 07:36:28;;;;;;;17.92;9.55;;;;;;;18.51;100.00;99313.75;4914092;29;20059;-86
2022/05/15 07:38:53;;;;;;;20.25;8.70;;;;;;;18.47;100.00;99316.06;4914077;29;20418;-86
2022/05/15 07:41:19;;;;;;;15.43;8.77;;;;;;;18.47;100.00;99309.94;4914347;29;20478;-87
2022/05/15 07:43:45;;;;;;;14.73;8.32;;;;;;;18.74;100.00;99319.97;4914274;29;20501;-88
2022/05/15 07:46:11;;;;;;;14.40;8.32;;;;;;;18.94;100.00;99314.97;4914583;29;20030;-87
2022/05/15 07:48:37;;;;;;;19.52;8.07;;;;;;;19.08;100.00;99312.78;4913412;29;20024;-87
2022/05/15 07:51:03;;;;;;;18.30;8.18;;;;;;;19.09;100.00;99321.59;4912175;29;20458;-88
2022/05/15 07:53:29;;;;;;;14.90;8.23;;;;;;;19.11;100.00;99308.84;4912809;29;20557;-87
2022/05/15 07:55:56;;;;;;;17.20;8.35;;;;;;;19.54;100.00;99315.28;4921066;29;20032;-86
2022/05/15 07:58:23;;;;;;;16.05;8.32;;;;;;;19.67;100.00;99315.97;4897156;29;20040;-86
2022/05/15 08:00:52;;;;;;;16.92;8.07;;;;;;;19.88;100.00;99318.88;4897116;29;20040;-85
2022/05/15 08:03:18;;;;;;;17.42;8.50;;;;;;;20.03;100.00;99312.94;4911842;29;20071;-87
2022/05/15 08:08:28;;;;;;;19.42;8.23;;;;;;;20.08;100.00;99321.78;4911570;29;20043;-87
2022/05/15 08:10:54;;;;;;;17.33;7.88;;;;;;;19.80;100.00;99326.22;4914178;29;20036;-85
2022/05/15 08:13:26;;;;;;;15.10;8.00;;;;;;;19.64;100.00;99321.78;4917090;29;20039;-85
2022/05/15 08:15:55;;;;;;;16.10;7.90;;;;;;;19.65;100.00;99328.69;4940971;29;20048;-86
2022/05/15 08:23:54;;;;;;;16.10;8.23;;;;;;;19.09;100.00;99300.31;4918809;29;20121;-89
2022/05/15 08:26:23;;;;;;;18.55;8.90;;;;;;;19.02;100.00;99307.63;4917775;29;20028;-88
2022/05/15 08:28:49;;;;;;;14.98;8.75;;;;;;;18.88;100.00;99315.13;4918024;29;20036;-85
2022/05/15 08:31:17;;;;;;;16.42;8.55;;;;;;;18.75;100.00;99308.28;4917046;29;20471;-85
2022/05/15 08:33:44;;;;;;;20.38;8.75;;;;;;;18.73;100.00;99318.34;4916818;29;20029;-85
2022/05/15 08:36:10;;;;;;;19.67;8.55;;;;;;;18.68;100.00;99322.53;4915498;29;20039;-86
2022/05/15 08:38:37;;;;;;;19.52;8.45;;;;;;;18.75;100.00;99317.03;4914645;29;20036;-86
2022/05/15 08:41:31;;;;;;;17.48;8.98;;;;;;;18.73;100.00;99313.81;4915469;29;20076;-85
2022/05/15 08:44:11;;;;;;;22.38;8.75;;;;;;;18.96;100.00;99304.88;4914550;29;20128;-86
2022/05/15 08:46:40;;;;;;;19.23;8.88;;;;;;;19.18;100.00;99298.81;4910408;29;20116;-86
2022/05/15 08:49:11;;;;;;;16.08;8.57;;;;;;;19.63;100.00;99304.19;4915656;29;21215;-84
2022/05/15 08:51:52;;;;;;;17.42;8.73;;;;;;;20.01;100.00;99294.53;4914783;29;20103;-86
2022/05/15 08:54:19;;;;;;;13.23;8.68;;;;;;;20.31;97.91;99293.22;4909432;29;20044;-85
2022/05/15 08:56:49;;;;;;;18.02;8.57;;;;;;;20.80;99.13;99289.66;4914453;29;20039;-90
2022/05/15 08:59:30;;;;;;;19.00;8.35;;;;;;;21.02;95.09;99290.56;4912890;29;20060;-87
2022/05/15 09:01:59;;;;;;;20.98;8.68;;;;;;;21.37;95.16;99287.31;4913004;29;20486;-86
2022/05/15 09:04:26;;;;;;;17.88;8.57;;;;;;;21.68;94.09;99284.78;4912527;29;20463;-87
2022/05/15 09:06:58;;;;;;;17.13;8.55;;;;;;;21.92;92.79;99281.66;4912314;29;20107;-87
2022/05/15 09:09:48;;;;;;;15.30;8.07;;;;;;;22.06;90.73;99276.59;4913465;29;20119;-84
2022/05/15 09:12:17;;;;;;;16.30;8.57;;;;;;;22.36;87.55;99271.53;4939652;29;20122;-85
2022/05/15 09:15:00;;;;;;;16.00;8.00;;;;;;;22.17;87.17;99260.56;4915207;29;20032;-85
2022/05/15 09:17:44;;;;;;;13.10;8.25;;;;;;;21.67;86.44;99261.78;4915132;29;20024;-88
2022/05/15 09:20:10;;;;;;;14.82;7.30;;;;;;;21.62;86.89;99271.66;4916985;29;20119;-89
2022/05/15 09:22:39;;;;;;;15.05;8.25;;;;;;;21.81;85.60;99266.66;4915342;29;20116;-86
2022/05/15 09:25:17;;;;;;;14.68;7.80;;;;;;;21.82;84.10;99271.75;4913128;29;20038;-83
2022/05/15 09:28:07;;;;;;;15.20;7.55;;;;;;;21.82;85.32;99263.72;4914373;29;20028;-86
2022/05/15 09:30:49;;;;;;;16.63;7.15;;;;;;;22.22;84.59;99268.59;4916142;29;20028;-89
2022/05/15 09:33:32;;;;;;;12.57;7.60;;;;;;;22.60;83.61;99271.84;4913983;29;20068;-88
2022/05/15 09:38:26;;;;;;;16.05;8.32;;;;;;;22.61;80.71;99268.09;4913509;29;20036;-89
2022/05/15 09:39:45;;;;;;;20.52;8.40;;;;;;;22.65;83.30;99258.44;4916246;29;20028;-85
2022/05/15 09:45:07;;;;;;;15.13;8.15;;;;;;;22.99;81.18;99265.06;4914925;29;20036;-87
2022/05/15 09:47:33;;;;;;;18.17;7.63;;;;;;;23.00;78.11;99257.88;4914671;29;20024;-88
2022/05/15 09:49:59;;;;;;;15.25;8.43;;;;;;;23.11;78.42;99256.75;4913336;29;20171;-87
2022/05/15 09:52:38;;;;;;;16.30;7.07;;;;;;;23.16;76.80;99243.34;4915020;29;20454;-87
2022/05/15 09:55:21;;;;;;;14.23;7.18;;;;;;;22.99;77.98;99237.50;4914838;29;20047;-88
2022/05/15 09:57:58;;;;;;;13.63;7.93;;;;;;;22.87;76.13;99235.94;4915431;29;20035;-87
2022/05/15 10:00:27;;;;;;;16.20;7.65;;;;;;;22.53;75.89;99241.88;4914439;29;20036;-87
2022/05/15 10:02:56;;;;;;;14.77;7.32;;;;;;;22.44;78.23;99241.56;4915022;29;20427;-88
2022/05/15 10:05:23;;;;;;;13.82;6.55;;;;;;;22.23;78.02;99243.47;4914291;29;20032;-88
2022/05/15 10:08:23;;;;;;;12.20;5.97;;;;;;;21.92;75.60;99243.41;4914262;29;20040;-89
2022/05/15 10:11:02;;;;;;;13.40;6.57;;;;;;;21.73;75.17;99235.91;4911411;29;20078;-89
2022/05/15 10:13:36;;;;;;;18.77;7.82;;;;;;;21.66;75.42;99240.69;4913364;29;20083;-89
2022/05/15 10:16:22;;;;;;;10.30;6.65;;;;;;;21.66;78.08;99240.69;4913650;29;20478;-88
2022/05/15 10:19:01;;;;;;;14.82;6.93;;;;;;;21.80;78.52;99236.44;4913917;29;20040;-87
2022/05/15 10:21:47;;;;;;;17.98;7.03;;;;;;;21.79;76.19;99228.72;4914614;29;20028;-88
2022/05/15 10:24:20;;;;;;;13.65;6.93;;;;;;;21.82;75.97;99234.34;4914351;29;20538;-88
2022/05/15 10:26:58;;;;;;;16.63;6.53;;;;;;;21.83;75.80;99235.13;4913962;29;20401;-88
2022/05/15 10:29:30;;;;;;;9.70;6.47;;;;;;;21.76;76.28;99229.25;4915202;29;20039;-88
2022/05/15 10:32:05;;;;;;;12.57;7.18;;;;;;;21.73;76.51;99230.56;4914542;29;20043;-88
2022/05/15 10:34:31;;;;;;;14.32;7.50;;;;;;;21.75;77.54;99228.41;4914133;29;20118;-88
2022/05/15 10:37:42;;;;;;;16.63;7.15;;;;;;;21.52;77.72;99241.16;4915064;29;20032;-88
2022/05/15 10:40:20;;;;;;;16.30;6.97;;;;;;;21.68;78.06;99225.22;4914309;29;20189;-87
2022/05/15 10:43:13;;;;;;;15.15;7.10;;;;;;;21.76;77.62;99229.25;4913411;29;20123;-87
2022/05/15 10:46:13;;;;;;;13.88;6.95;;;;;;;22.32;76.53;99217.78;4914248;29;20467;-87
2022/05/15 10:49:01;;;;;;;15.45;6.40;;;;;;;22.99;74.41;99216.06;4911120;29;20495;-87
2022/05/15 10:51:56;;;;;;;12.60;6.38;;;;;;;23.47;74.59;99223.69;4913116;29;20043;-88
2022/05/15 10:57:29;;;;;;;19.73;8.27;;;;;;;23.87;73.29;99218.38;4913594;29;20040;-86
2022/05/15 11:00:13;;;;;;;14.70;6.95;;;;;;;23.84;74.02;99219.72;4914048;29;20028;-88
2022/05/15 11:02:58;;;;;;;16.55;6.88;;;;;;;23.88;74.98;99225.34;4913903;29;20060;-88
2022/05/15 11:05:28;;;;;;;15.90;8.07;;;;;;;23.68;73.13;99219.03;4914375;29;20040;-88
2022/05/15 11:08:09;;;;;;;14.88;8.10;;;;;;;23.40;75.03;99215.97;4913437;29;20028;-87
2022/05/15 11:11:06;;;;;;;17.40;7.95;;;;;;;23.43;75.32;99206.56;4913554;29;20110;-87
2022/05/15 11:13:53;;;;;;;14.90;8.10;;;;;;;23.05;76.43;99201.63;4912662;29;20052;-87
2022/05/15 11:16:31;;;;;;;20.05;8.73;;;;;;;22.58;77.31;99203.63;4912148;29;20032;-86
2022/05/15 11:18:57;;;;;;;20.55;8.93;;;;;;;22.54;78.39;99204.16;4914142;29;20108;-87
2022/05/15 11:21:36;;;;;;;21.75;9.00;;;;;;;22.52;80.37;99208.16;4934470;29;20561;-87
2022/05/15 11:24:10;;;;;;;19.23;9.07;;;;;;;22.34;79.81;99201.47;4914420;29;20032;-86
2022/05/15 11:26:41;;;;;;;20.15;10.18;;;;;;;22.10;80.14;99194.81;4914253;29;20039;-87
2022/05/15 11:29:15;;;;;;;24.92;10.20;;;;;;;21.90;83.66;99187.56;4913312;29;20024;-87
2022/05/15 11:31:59;;;;;;;24.60;9.73;;;;;;;21.80;83.34;99188.34;4914615;29;20028;-87
2022/05/15 11:34:43;;;;;;;;;;;;;;;21.67;84.36;99184.31;4914202;29;20374;-87
2022/05/15 11:37:27;;;;;;;;;;;;;;;21.79;84.13;99186.75;4914349;29;19931;-85
2022/05/15 11:39:58;;;;;;;;;;;;;;;21.94;84.98;99185.97;4914364;29;19954;-87
2022/05/15 11:42:27;;;;;;;21.13;11.18;;;;;;;21.99;86.10;99179.81;4912584;29;19981;-86
2022/05/15 11:44:54;;;;;;;23.83;11.07;;;;;;;22.05;84.41;99180.63;4912742;29;20036;-86
2022/05/15 11:47:34;;;;;;;21.95;11.32;;;;;;;22.06;85.23;99168.88;4917568;29;20088;-87
2022/05/15 11:50:11;;;;;;;19.17;11.38;;;;;;;22.04;85.31;99171.81;4917604;29;20036;-87
2022/05/15 11:52:39;;;;;;;25.20;12.20;;;;;;;22.24;84.63;99170.22;4918922;29;20034;-88